sensor_id;sensor_type;location;lat;lon;timestamp;P1;durP1;ratioP1;P2;durP2;ratioP2
18407;SDS011;9330;52.210;21.174;2022-07-23T00:01:22;11.90;;;10.77;;
18407;SDS011;9330;52.210;21.174;2022-07-23T00:03:49;15.85;;;11.38;;
18407;SDS011;9330;52.210;21.174;2022-07-23T00:06:18;12.88;;;11.55;;
18407;SDS011;9330;52.210;21.174;2022-07-23T00:08:45;12.52;;;11.45;;
18407;SDS011;9330;52.210;21.174;2022-07-23T00:11:12;12.00;;;10.82;;
18407;SDS011;9330;52.210;21.174;2022-07-23T00:13:39;11.40;;;10.32;;
18407;SDS011;9330;52.210;21.174;2022-07-23T00:16:06;12.57;;;11.38;;
18407;SDS011;9330;52.210;21.174;2022-07-23T00:18:34;12.50;;;11.30;;
18407;SDS011;9330;52.210;21.174;2022-07-23T00:21:01;12.15;;;10.98;;
18407;SDS011;9330;52.210;21.174;2022-07-23T00:23:29;12.13;;;10.93;;
18407;SDS011;9330;52.210;21.174;2022-07-23T00:25:56;12.65;;;11.38;;
18407;SDS011;9330;52.210;21.174;2022-07-23T00:28:23;12.55;;;11.05;;
18407;SDS011;9330;52.210;21.174;2022-07-23T00:30:50;12.18;;;10.98;;
18407;SDS011;9330;52.210;21.174;2022-07-23T00:33:17;12.20;;;10.95;;
18407;SDS011;9330;52.210;21.174;2022-07-23T00:35:44;12.25;;;11.10;;
18407;SDS011;9330;52.210;21.174;2022-07-23T00:38:11;12.13;;;10.98;;
18407;SDS011;9330;52.210;21.174;2022-07-23T00:40:39;14.57;;;11.63;;
18407;SDS011;9330;52.210;21.174;2022-07-23T00:43:07;12.57;;;11.48;;
18407;SDS011;9330;52.210;21.174;2022-07-23T00:45:34;13.32;;;11.88;;
18407;SDS011;9330;52.210;21.174;2022-07-23T00:48:01;11.80;;;10.70;;
18407;SDS011;9330;52.210;21.174;2022-07-23T00:50:28;13.05;;;11.85;;
18407;SDS011;9330;52.210;21.174;2022-07-23T00:52:56;12.57;;;11.38;;
18407;SDS011;9330;52.210;21.174;2022-07-23T00:55:23;12.45;;;11.20;;
18407;SDS011;9330;52.210;21.174;2022-07-23T00:57:51;12.85;;;11.55;;
18407;SDS011;9330;52.210;21.174;2022-07-23T01:00:20;13.55;;;11.90;;
18407;SDS011;9330;52.210;21.174;2022-07-23T01:02:47;13.60;;;12.30;;
18407;SDS011;9330;52.210;21.174;2022-07-23T01:05:15;12.52;;;11.48;;
18407;SDS011;9330;52.210;21.174;2022-07-23T01:07:43;14.38;;;12.10;;
18407;SDS011;9330;52.210;21.174;2022-07-23T01:10:10;12.73;;;11.52;;
18407;SDS011;9330;52.210;21.174;2022-07-23T01:12:52;13.50;;;12.02;;
18407;SDS011;9330;52.210;21.174;2022-07-23T01:15:19;12.27;;;11.18;;
18407;SDS011;9330;52.210;21.174;2022-07-23T01:17:46;13.88;;;11.88;;
18407;SDS011;9330;52.210;21.174;2022-07-23T01:20:13;13.25;;;12.02;;
18407;SDS011;9330;52.210;21.174;2022-07-23T01:22:42;12.73;;;11.43;;
18407;SDS011;9330;52.210;21.174;2022-07-23T01:25:09;13.43;;;12.05;;
18407;SDS011;9330;52.210;21.174;2022-07-23T01:27:36;14.80;;;12.32;;
18407;SDS011;9330;52.210;21.174;2022-07-23T01:30:03;14.65;;;12.77;;
18407;SDS011;9330;52.210;21.174;2022-07-23T01:32:31;13.05;;;11.88;;
18407;SDS011;9330;52.210;21.174;2022-07-23T01:34:58;13.35;;;12.15;;
18407;SDS011;9330;52.210;21.174;2022-07-23T01:37:25;13.00;;;11.70;;
18407;SDS011;9330;52.210;21.174;2022-07-23T01:39:53;13.63;;;12.35;;
18407;SDS011;9330;52.210;21.174;2022-07-23T01:42:20;12.70;;;11.48;;
18407;SDS011;9330;52.210;21.174;2022-07-23T01:44:48;13.35;;;12.07;;
18407;SDS011;9330;52.210;21.174;2022-07-23T01:47:15;13.90;;;12.55;;
18407;SDS011;9330;52.210;21.174;2022-07-23T01:49:42;12.90;;;11.73;;
18407;SDS011;9330;52.210;21.174;2022-07-23T01:52:09;12.85;;;11.70;;
18407;SDS011;9330;52.210;21.174;2022-07-23T01:54:37;13.38;;;12.13;;
18407;SDS011;9330;52.210;21.174;2022-07-23T01:57:06;13.43;;;12.20;;
18407;SDS011;9330;52.210;21.174;2022-07-23T01:59:34;13.77;;;12.48;;
18407;SDS011;9330;52.210;21.174;2022-07-23T02:02:02;13.70;;;12.50;;
18407;SDS011;9330;52.210;21.174;2022-07-23T02:04:30;12.55;;;11.43;;
18407;SDS011;9330;52.210;21.174;2022-07-23T02:07:00;13.57;;;12.27;;
18407;SDS011;9330;52.210;21.174;2022-07-23T02:09:27;13.55;;;12.20;;
18407;SDS011;9330;52.210;21.174;2022-07-23T02:11:54;13.05;;;11.75;;
18407;SDS011;9330;52.210;21.174;2022-07-23T02:14:22;13.70;;;12.13;;
18407;SDS011;9330;52.210;21.174;2022-07-23T02:16:49;13.00;;;11.70;;
18407;SDS011;9330;52.210;21.174;2022-07-23T02:19:16;14.13;;;12.50;;
18407;SDS011;9330;52.210;21.174;2022-07-23T02:21:43;12.95;;;11.65;;
18407;SDS011;9330;52.210;21.174;2022-07-23T02:24:10;13.57;;;12.27;;
18407;SDS011;9330;52.210;21.174;2022-07-23T02:26:37;12.45;;;11.25;;
18407;SDS011;9330;52.210;21.174;2022-07-23T02:29:04;13.50;;;12.20;;
18407;SDS011;9330;52.210;21.174;2022-07-23T02:31:33;13.77;;;12.15;;
18407;SDS011;9330;52.210;21.174;2022-07-23T02:34:00;13.50;;;11.40;;
18407;SDS011;9330;52.210;21.174;2022-07-23T02:36:27;13.60;;;12.30;;
18407;SDS011;9330;52.210;21.174;2022-07-23T02:38:54;13.27;;;12.07;;
18407;SDS011;9330;52.210;21.174;2022-07-23T02:41:21;13.45;;;12.25;;
18407;SDS011;9330;52.210;21.174;2022-07-23T02:43:49;13.43;;;12.15;;
18407;SDS011;9330;52.210;21.174;2022-07-23T02:46:16;12.63;;;11.52;;
18407;SDS011;9330;52.210;21.174;2022-07-23T02:48:44;13.77;;;12.40;;
18407;SDS011;9330;52.210;21.174;2022-07-23T02:51:11;14.13;;;12.82;;
18407;SDS011;9330;52.210;21.174;2022-07-23T02:53:38;13.70;;;12.38;;
18407;SDS011;9330;52.210;21.174;2022-07-23T02:56:05;13.70;;;12.38;;
18407;SDS011;9330;52.210;21.174;2022-07-23T02:58:32;14.30;;;12.80;;
18407;SDS011;9330;52.210;21.174;2022-07-23T03:00:58;13.27;;;12.05;;
18407;SDS011;9330;52.210;21.174;2022-07-23T03:03:25;12.88;;;11.65;;
18407;SDS011;9330;52.210;21.174;2022-07-23T03:05:54;13.65;;;12.45;;
18407;SDS011;9330;52.210;21.174;2022-07-23T03:08:21;13.63;;;12.32;;
18407;SDS011;9330;52.210;21.174;2022-07-23T03:10:47;14.18;;;12.77;;
18407;SDS011;9330;52.210;21.174;2022-07-23T03:13:14;13.75;;;12.50;;
18407;SDS011;9330;52.210;21.174;2022-07-23T03:15:42;13.93;;;12.63;;
18407;SDS011;9330;52.210;21.174;2022-07-23T03:18:09;13.32;;;12.15;;
18407;SDS011;9330;52.210;21.174;2022-07-23T03:20:36;13.20;;;12.00;;
18407;SDS011;9330;52.210;21.174;2022-07-23T03:23:04;13.88;;;12.50;;
18407;SDS011;9330;52.210;21.174;2022-07-23T03:25:31;13.52;;;12.32;;
18407;SDS011;9330;52.210;21.174;2022-07-23T03:27:58;13.43;;;12.18;;
18407;SDS011;9330;52.210;21.174;2022-07-23T03:30:25;13.77;;;12.57;;
18407;SDS011;9330;52.210;21.174;2022-07-23T03:32:52;13.70;;;12.43;;
18407;SDS011;9330;52.210;21.174;2022-07-23T03:35:19;14.05;;;12.77;;
18407;SDS011;9330;52.210;21.174;2022-07-23T03:37:45;14.63;;;13.25;;
18407;SDS011;9330;52.210;21.174;2022-07-23T03:40:14;13.73;;;12.45;;
18407;SDS011;9330;52.210;21.174;2022-07-23T03:42:41;13.88;;;12.55;;
18407;SDS011;9330;52.210;21.174;2022-07-23T03:45:09;15.20;;;12.75;;
18407;SDS011;9330;52.210;21.174;2022-07-23T03:47:36;13.82;;;12.50;;
18407;SDS011;9330;52.210;21.174;2022-07-23T03:50:04;14.07;;;12.73;;
18407;SDS011;9330;52.210;21.174;2022-07-23T03:52:31;14.10;;;12.80;;
18407;SDS011;9330;52.210;21.174;2022-07-23T03:54:58;13.52;;;12.23;;
18407;SDS011;9330;52.210;21.174;2022-07-23T03:57:27;13.95;;;12.70;;
18407;SDS011;9330;52.210;21.174;2022-07-23T03:59:54;13.27;;;12.05;;
18407;SDS011;9330;52.210;21.174;2022-07-23T04:02:21;13.60;;;12.40;;
18407;SDS011;9330;52.210;21.174;2022-07-23T04:04:48;14.07;;;12.60;;
18407;SDS011;9330;52.210;21.174;2022-07-23T04:07:15;13.85;;;12.55;;
18407;SDS011;9330;52.210;21.174;2022-07-23T04:09:42;13.88;;;12.45;;
18407;SDS011;9330;52.210;21.174;2022-07-23T04:12:09;12.90;;;11.80;;
18407;SDS011;9330;52.210;21.174;2022-07-23T04:14:38;12.93;;;11.73;;
18407;SDS011;9330;52.210;21.174;2022-07-23T04:17:05;13.77;;;12.55;;
18407;SDS011;9330;52.210;21.174;2022-07-23T04:19:32;14.00;;;12.80;;
18407;SDS011;9330;52.210;21.174;2022-07-23T04:22:00;13.88;;;12.50;;
18407;SDS011;9330;52.210;21.174;2022-07-23T04:24:27;13.77;;;12.57;;
18407;SDS011;9330;52.210;21.174;2022-07-23T04:26:54;13.25;;;12.05;;
18407;SDS011;9330;52.210;21.174;2022-07-23T04:29:21;12.65;;;11.45;;
18407;SDS011;9330;52.210;21.174;2022-07-23T04:31:50;12.27;;;11.18;;
18407;SDS011;9330;52.210;21.174;2022-07-23T04:34:17;12.73;;;11.43;;
18407;SDS011;9330;52.210;21.174;2022-07-23T04:36:45;12.75;;;11.65;;
18407;SDS011;9330;52.210;21.174;2022-07-23T04:39:12;14.07;;;12.80;;
18407;SDS011;9330;52.210;21.174;2022-07-23T04:41:39;12.45;;;11.20;;
18407;SDS011;9330;52.210;21.174;2022-07-23T04:44:06;12.85;;;11.55;;
18407;SDS011;9330;52.210;21.174;2022-07-23T04:46:33;13.27;;;12.07;;
18407;SDS011;9330;52.210;21.174;2022-07-23T04:49:02;13.50;;;12.15;;
18407;SDS011;9330;52.210;21.174;2022-07-23T04:51:29;12.77;;;11.57;;
18407;SDS011;9330;52.210;21.174;2022-07-23T04:53:56;14.52;;;12.57;;
18407;SDS011;9330;52.210;21.174;2022-07-23T04:56:23;12.85;;;11.65;;
18407;SDS011;9330;52.210;21.174;2022-07-23T04:58:50;13.45;;;12.05;;
18407;SDS011;9330;52.210;21.174;2022-07-23T05:01:17;12.73;;;11.43;;
18407;SDS011;9330;52.210;21.174;2022-07-23T05:03:44;13.25;;;11.88;;
18407;SDS011;9330;52.210;21.174;2022-07-23T05:06:12;13.38;;;11.93;;
18407;SDS011;9330;52.210;21.174;2022-07-23T05:08:39;12.52;;;11.32;;
18407;SDS011;9330;52.210;21.174;2022-07-23T05:11:06;13.57;;;11.90;;
18407;SDS011;9330;52.210;21.174;2022-07-23T05:13:33;12.80;;;11.50;;
18407;SDS011;9330;52.210;21.174;2022-07-23T05:15:59;14.38;;;11.35;;
18407;SDS011;9330;52.210;21.174;2022-07-23T05:18:26;12.18;;;10.98;;
18407;SDS011;9330;52.210;21.174;2022-07-23T05:20:53;12.57;;;10.95;;
18407;SDS011;9330;52.210;21.174;2022-07-23T05:23:22;11.50;;;10.30;;
18407;SDS011;9330;52.210;21.174;2022-07-23T05:25:48;12.20;;;10.50;;
18407;SDS011;9330;52.210;21.174;2022-07-23T05:28:16;11.25;;;10.18;;
18407;SDS011;9330;52.210;21.174;2022-07-23T05:30:43;10.90;;;9.80;;
18407;SDS011;9330;52.210;21.174;2022-07-23T05:33:10;11.35;;;9.43;;
18407;SDS011;9330;52.210;21.174;2022-07-23T05:35:36;10.85;;;9.75;;
18407;SDS011;9330;52.210;21.174;2022-07-23T05:38:03;9.95;;;8.95;;
18407;SDS011;9330;52.210;21.174;2022-07-23T05:40:32;9.95;;;9.07;;
18407;SDS011;9330;52.210;21.174;2022-07-23T05:42:59;14.93;;;8.77;;
18407;SDS011;9330;52.210;21.174;2022-07-23T05:45:26;9.98;;;8.98;;
18407;SDS011;9330;52.210;21.174;2022-07-23T05:47:53;9.23;;;8.32;;
18407;SDS011;9330;52.210;21.174;2022-07-23T05:50:19;9.32;;;8.43;;
18407;SDS011;9330;52.210;21.174;2022-07-23T05:52:46;10.98;;;8.98;;
18407;SDS011;9330;52.210;21.174;2022-07-23T05:55:13;9.65;;;8.75;;
18407;SDS011;9330;52.210;21.174;2022-07-23T05:57:41;9.43;;;8.45;;
18407;SDS011;9330;52.210;21.174;2022-07-23T06:00:09;9.40;;;8.40;;
18407;SDS011;9330;52.210;21.174;2022-07-23T06:02:37;11.20;;;8.15;;
18407;SDS011;9330;52.210;21.174;2022-07-23T06:05:05;9.43;;;8.52;;
18407;SDS011;9330;52.210;21.174;2022-07-23T06:07:34;11.68;;;8.63;;
18407;SDS011;9330;52.210;21.174;2022-07-23T06:10:00;10.25;;;8.32;;
18407;SDS011;9330;52.210;21.174;2022-07-23T06:12:27;8.85;;;7.95;;
18407;SDS011;9330;52.210;21.174;2022-07-23T06:14:56;8.85;;;8.02;;
18407;SDS011;9330;52.210;21.174;2022-07-23T06:17:23;9.20;;;8.40;;
18407;SDS011;9330;52.210;21.174;2022-07-23T06:19:50;8.73;;;7.88;;
18407;SDS011;9330;52.210;21.174;2022-07-23T06:22:17;10.30;;;8.77;;
18407;SDS011;9330;52.210;21.174;2022-07-23T06:24:43;9.02;;;7.63;;
18407;SDS011;9330;52.210;21.174;2022-07-23T06:27:11;12.93;;;8.98;;
18407;SDS011;9330;52.210;21.174;2022-07-23T06:29:38;11.18;;;8.30;;
18407;SDS011;9330;52.210;21.174;2022-07-23T06:32:07;9.18;;;8.23;;
18407;SDS011;9330;52.210;21.174;2022-07-23T06:34:34;9.02;;;8.18;;
18407;SDS011;9330;52.210;21.174;2022-07-23T06:37:01;8.88;;;8.05;;
18407;SDS011;9330;52.210;21.174;2022-07-23T06:39:28;8.15;;;7.38;;
18407;SDS011;9330;52.210;21.174;2022-07-23T06:41:55;9.02;;;8.13;;
18407;SDS011;9330;52.210;21.174;2022-07-23T06:44:22;8.77;;;7.65;;
18407;SDS011;9330;52.210;21.174;2022-07-23T06:46:49;8.48;;;7.55;;
18407;SDS011;9330;52.210;21.174;2022-07-23T06:49:17;8.25;;;7.53;;
18407;SDS011;9330;52.210;21.174;2022-07-23T06:51:44;8.50;;;7.63;;
18407;SDS011;9330;52.210;21.174;2022-07-23T06:54:11;7.78;;;6.97;;
18407;SDS011;9330;52.210;21.174;2022-07-23T06:56:38;8.10;;;7.40;;
18407;SDS011;9330;52.210;21.174;2022-07-23T06:59:06;8.05;;;6.78;;
18407;SDS011;9330;52.210;21.174;2022-07-23T07:01:33;7.65;;;6.95;;
18407;SDS011;9330;52.210;21.174;2022-07-23T07:04:00;8.00;;;7.20;;
18407;SDS011;9330;52.210;21.174;2022-07-23T07:06:29;9.52;;;7.80;;
18407;SDS011;9330;52.210;21.174;2022-07-23T07:08:56;8.18;;;7.30;;
18407;SDS011;9330;52.210;21.174;2022-07-23T07:11:23;7.22;;;6.63;;
18407;SDS011;9330;52.210;21.174;2022-07-23T07:13:50;8.95;;;7.40;;
18407;SDS011;9330;52.210;21.174;2022-07-23T07:16:17;7.95;;;7.15;;
18407;SDS011;9330;52.210;21.174;2022-07-23T07:18:44;8.07;;;7.00;;
18407;SDS011;9330;52.210;21.174;2022-07-23T07:21:11;7.60;;;7.00;;
18407;SDS011;9330;52.210;21.174;2022-07-23T07:23:40;8.20;;;7.32;;
18407;SDS011;9330;52.210;21.174;2022-07-23T07:26:07;8.25;;;7.45;;
18407;SDS011;9330;52.210;21.174;2022-07-23T07:28:33;8.18;;;7.38;;
18407;SDS011;9330;52.210;21.174;2022-07-23T07:31:00;8.57;;;7.05;;
18407;SDS011;9330;52.210;21.174;2022-07-23T07:33:28;7.80;;;7.07;;
18407;SDS011;9330;52.210;21.174;2022-07-23T07:35:55;8.32;;;7.55;;
18407;SDS011;9330;52.210;21.174;2022-07-23T07:38:22;8.57;;;7.78;;
18407;SDS011;9330;52.210;21.174;2022-07-23T07:40:50;8.27;;;7.47;;
18407;SDS011;9330;52.210;21.174;2022-07-23T07:43:17;7.72;;;7.03;;
18407;SDS011;9330;52.210;21.174;2022-07-23T07:45:44;8.65;;;7.80;;
18407;SDS011;9330;52.210;21.174;2022-07-23T07:48:11;7.35;;;6.55;;
18407;SDS011;9330;52.210;21.174;2022-07-23T07:50:38;7.55;;;6.82;;
18407;SDS011;9330;52.210;21.174;2022-07-23T07:53:04;8.60;;;7.07;;
18407;SDS011;9330;52.210;21.174;2022-07-23T07:55:31;7.60;;;6.80;;
18407;SDS011;9330;52.210;21.174;2022-07-23T07:58:00;7.22;;;6.53;;
18407;SDS011;9330;52.210;21.174;2022-07-23T08:00:27;7.20;;;6.50;;
18407;SDS011;9330;52.210;21.174;2022-07-23T08:02:54;7.10;;;6.50;;
18407;SDS011;9330;52.210;21.174;2022-07-23T08:05:21;7.43;;;6.75;;
18407;SDS011;9330;52.210;21.174;2022-07-23T08:07:50;7.07;;;6.47;;
18407;SDS011;9330;52.210;21.174;2022-07-23T08:10:17;7.10;;;6.25;;
18407;SDS011;9330;52.210;21.174;2022-07-23T08:12:45;7.05;;;6.30;;
18407;SDS011;9330;52.210;21.174;2022-07-23T08:15:14;6.32;;;5.82;;
18407;SDS011;9330;52.210;21.174;2022-07-23T08:17:43;7.10;;;6.40;;
18407;SDS011;9330;52.210;21.174;2022-07-23T08:20:12;6.88;;;6.28;;
18407;SDS011;9330;52.210;21.174;2022-07-23T08:22:44;7.20;;;6.50;;
18407;SDS011;9330;52.210;21.174;2022-07-23T08:25:14;6.28;;;5.72;;
18407;SDS011;9330;52.210;21.174;2022-07-23T08:27:41;7.47;;;6.53;;
18407;SDS011;9330;52.210;21.174;2022-07-23T08:30:08;6.97;;;6.15;;
18407;SDS011;9330;52.210;21.174;2022-07-23T08:32:54;6.55;;;5.95;;
18407;SDS011;9330;52.210;21.174;2022-07-23T08:35:23;6.75;;;6.07;;
18407;SDS011;9330;52.210;21.174;2022-07-23T08:37:51;9.23;;;6.38;;
18407;SDS011;9330;52.210;21.174;2022-07-23T08:40:18;7.35;;;6.75;;
18407;SDS011;9330;52.210;21.174;2022-07-23T08:42:47;6.95;;;6.25;;
18407;SDS011;9330;52.210;21.174;2022-07-23T08:45:16;7.07;;;6.57;;
18407;SDS011;9330;52.210;21.174;2022-07-23T08:47:45;7.40;;;6.70;;
18407;SDS011;9330;52.210;21.174;2022-07-23T08:50:15;7.10;;;6.40;;
18407;SDS011;9330;52.210;21.174;2022-07-23T08:52:42;6.90;;;6.20;;
18407;SDS011;9330;52.210;21.174;2022-07-23T08:55:10;7.97;;;6.90;;
18407;SDS011;9330;52.210;21.174;2022-07-23T08:57:37;6.55;;;6.00;;
18407;SDS011;9330;52.210;21.174;2022-07-23T09:00:04;6.82;;;6.13;;
18407;SDS011;9330;52.210;21.174;2022-07-23T09:02:37;6.55;;;5.90;;
18407;SDS011;9330;52.210;21.174;2022-07-23T09:05:06;13.02;;;6.57;;
18407;SDS011;9330;52.210;21.174;2022-07-23T09:07:35;6.65;;;6.05;;
18407;SDS011;9330;52.210;21.174;2022-07-23T09:10:05;6.50;;;5.90;;
18407;SDS011;9330;52.210;21.174;2022-07-23T09:12:34;7.07;;;5.90;;
18407;SDS011;9330;52.210;21.174;2022-07-23T09:15:05;7.53;;;6.57;;
18407;SDS011;9330;52.210;21.174;2022-07-23T09:17:37;8.63;;;6.22;;
18407;SDS011;9330;52.210;21.174;2022-07-23T09:20:09;6.80;;;6.13;;
18407;SDS011;9330;52.210;21.174;2022-07-23T09:22:39;6.20;;;5.60;;
18407;SDS011;9330;52.210;21.174;2022-07-23T09:25:10;7.07;;;6.38;;
18407;SDS011;9330;52.210;21.174;2022-07-23T09:30:28;8.10;;;6.38;;
18407;SDS011;9330;52.210;21.174;2022-07-23T09:33:06;6.80;;;6.10;;
18407;SDS011;9330;52.210;21.174;2022-07-23T09:35:44;7.30;;;6.10;;
18407;SDS011;9330;52.210;21.174;2022-07-23T09:38:15;6.45;;;5.88;;
18407;SDS011;9330;52.210;21.174;2022-07-23T09:40:43;7.22;;;6.20;;
18407;SDS011;9330;52.210;21.174;2022-07-23T09:43:10;6.80;;;6.10;;
18407;SDS011;9330;52.210;21.174;2022-07-23T09:45:38;7.22;;;6.38;;
18407;SDS011;9330;52.210;21.174;2022-07-23T09:48:11;7.30;;;6.00;;
18407;SDS011;9330;52.210;21.174;2022-07-23T09:50:39;6.05;;;5.45;;
18407;SDS011;9330;52.210;21.174;2022-07-23T09:53:07;6.35;;;5.78;;
18407;SDS011;9330;52.210;21.174;2022-07-23T09:55:36;6.63;;;5.68;;
18407;SDS011;9330;52.210;21.174;2022-07-23T09:58:03;6.50;;;6.00;;
18407;SDS011;9330;52.210;21.174;2022-07-23T10:00:33;6.82;;;6.22;;
18407;SDS011;9330;52.210;21.174;2022-07-23T10:03:01;6.05;;;5.47;;
18407;SDS011;9330;52.210;21.174;2022-07-23T10:05:30;6.10;;;5.55;;
18407;SDS011;9330;52.210;21.174;2022-07-23T10:07:57;6.80;;;6.20;;
18407;SDS011;9330;52.210;21.174;2022-07-23T10:10:26;6.70;;;5.38;;
18407;SDS011;9330;52.210;21.174;2022-07-23T10:12:55;5.95;;;5.35;;
18407;SDS011;9330;52.210;21.174;2022-07-23T10:15:37;5.72;;;5.18;;
18407;SDS011;9330;52.210;21.174;2022-07-23T10:18:06;6.57;;;5.50;;
18407;SDS011;9330;52.210;21.174;2022-07-23T10:20:36;6.45;;;5.65;;
18407;SDS011;9330;52.210;21.174;2022-07-23T10:23:04;7.15;;;5.63;;
18407;SDS011;9330;52.210;21.174;2022-07-23T10:25:41;6.13;;;5.57;;
18407;SDS011;9330;52.210;21.174;2022-07-23T10:28:25;6.25;;;5.60;;
18407;SDS011;9330;52.210;21.174;2022-07-23T10:31:08;6.60;;;5.90;;
18407;SDS011;9330;52.210;21.174;2022-07-23T10:33:54;7.20;;;6.28;;
18407;SDS011;9330;52.210;21.174;2022-07-23T10:36:37;6.18;;;5.43;;
18407;SDS011;9330;52.210;21.174;2022-07-23T10:39:10;8.50;;;5.93;;
18407;SDS011;9330;52.210;21.174;2022-07-23T10:41:41;7.75;;;5.90;;
18407;SDS011;9330;52.210;21.174;2022-07-23T10:44:12;6.70;;;5.95;;
18407;SDS011;9330;52.210;21.174;2022-07-23T10:46:53;5.70;;;5.30;;
18407;SDS011;9330;52.210;21.174;2022-07-23T10:49:40;6.22;;;5.57;;
18407;SDS011;9330;52.210;21.174;2022-07-23T10:52:24;6.18;;;5.68;;
18407;SDS011;9330;52.210;21.174;2022-07-23T10:54:53;6.28;;;5.68;;
18407;SDS011;9330;52.210;21.174;2022-07-23T10:57:23;6.40;;;5.80;;
18407;SDS011;9330;52.210;21.174;2022-07-23T11:02:43;5.88;;;5.38;;
18407;SDS011;9330;52.210;21.174;2022-07-23T11:05:12;6.22;;;5.63;;
18407;SDS011;9330;52.210;21.174;2022-07-23T11:10:52;6.53;;;5.53;;
18407;SDS011;9330;52.210;21.174;2022-07-23T11:13:30;6.03;;;5.50;;
18407;SDS011;9330;52.210;21.174;2022-07-23T11:16:41;6.45;;;5.22;;
18407;SDS011;9330;52.210;21.174;2022-07-23T11:19:13;6.82;;;5.30;;
18407;SDS011;9330;52.210;21.174;2022-07-23T11:21:43;6.43;;;5.85;;
18407;SDS011;9330;52.210;21.174;2022-07-23T11:24:12;5.80;;;5.30;;
18407;SDS011;9330;52.210;21.174;2022-07-23T11:26:42;6.47;;;5.88;;
18407;SDS011;9330;52.210;21.174;2022-07-23T11:32:19;7.00;;;5.20;;
18407;SDS011;9330;52.210;21.174;2022-07-23T11:34:57;5.90;;;5.32;;
18407;SDS011;9330;52.210;21.174;2022-07-23T11:37:34;7.95;;;5.82;;
18407;SDS011;9330;52.210;21.174;2022-07-23T11:40:04;6.10;;;5.60;;
18407;SDS011;9330;52.210;21.174;2022-07-23T11:42:34;6.38;;;5.70;;
18407;SDS011;9330;52.210;21.174;2022-07-23T11:45:03;6.70;;;5.72;;
18407;SDS011;9330;52.210;21.174;2022-07-23T11:47:33;6.50;;;5.65;;
18407;SDS011;9330;52.210;21.174;2022-07-23T11:50:01;6.57;;;5.97;;
18407;SDS011;9330;52.210;21.174;2022-07-23T11:52:30;6.72;;;5.30;;
18407;SDS011;9330;52.210;21.174;2022-07-23T11:54:57;6.32;;;5.72;;
18407;SDS011;9330;52.210;21.174;2022-07-23T11:57:27;6.20;;;5.63;;
18407;SDS011;9330;52.210;21.174;2022-07-23T11:59:55;6.28;;;5.57;;
18407;SDS011;9330;52.210;21.174;2022-07-23T12:02:23;5.97;;;5.40;;
18407;SDS011;9330;52.210;21.174;2022-07-23T12:04:52;6.28;;;5.68;;
18407;SDS011;9330;52.210;21.174;2022-07-23T12:07:24;6.10;;;5.47;;
18407;SDS011;9330;52.210;21.174;2022-07-23T12:09:52;6.75;;;5.80;;
18407;SDS011;9330;52.210;21.174;2022-07-23T12:12:20;7.20;;;5.97;;
18407;SDS011;9330;52.210;21.174;2022-07-23T12:14:48;7.05;;;6.35;;
18407;SDS011;9330;52.210;21.174;2022-07-23T12:17:15;6.68;;;6.07;;
18407;SDS011;9330;52.210;21.174;2022-07-23T12:19:42;6.57;;;5.95;;
18407;SDS011;9330;52.210;21.174;2022-07-23T12:22:11;7.07;;;6.38;;
18407;SDS011;9330;52.210;21.174;2022-07-23T12:24:55;6.80;;;6.18;;
18407;SDS011;9330;52.210;21.174;2022-07-23T12:27:23;6.03;;;5.45;;
18407;SDS011;9330;52.210;21.174;2022-07-23T12:29:51;6.32;;;5.72;;
18407;SDS011;9330;52.210;21.174;2022-07-23T12:32:19;6.53;;;5.85;;
18407;SDS011;9330;52.210;21.174;2022-07-23T12:34:48;6.63;;;5.95;;
18407;SDS011;9330;52.210;21.174;2022-07-23T12:37:30;6.82;;;5.93;;
18407;SDS011;9330;52.210;21.174;2022-07-23T12:39:58;8.52;;;6.30;;
18407;SDS011;9330;52.210;21.174;2022-07-23T12:42:41;6.18;;;5.65;;
18407;SDS011;9330;52.210;21.174;2022-07-23T12:45:09;6.55;;;5.95;;
18407;SDS011;9330;52.210;21.174;2022-07-23T12:47:56;6.10;;;5.53;;
18407;SDS011;9330;52.210;21.174;2022-07-23T12:50:35;6.13;;;5.55;;
18407;SDS011;9330;52.210;21.174;2022-07-23T12:53:07;6.30;;;5.70;;
18407;SDS011;9330;52.210;21.174;2022-07-23T12:55:36;6.82;;;6.22;;
18407;SDS011;9330;52.210;21.174;2022-07-23T12:58:05;6.50;;;5.78;;
18407;SDS011;9330;52.210;21.174;2022-07-23T13:00:48;6.78;;;5.97;;
18407;SDS011;9330;52.210;21.174;2022-07-23T13:03:34;6.47;;;5.88;;
18407;SDS011;9330;52.210;21.174;2022-07-23T13:06:03;6.63;;;5.95;;
18407;SDS011;9330;52.210;21.174;2022-07-23T13:08:34;6.57;;;5.72;;
18407;SDS011;9330;52.210;21.174;2022-07-23T13:11:02;6.15;;;5.55;;
18407;SDS011;9330;52.210;21.174;2022-07-23T13:13:31;6.68;;;6.07;;
18407;SDS011;9330;52.210;21.174;2022-07-23T13:16:00;6.40;;;5.90;;
18407;SDS011;9330;52.210;21.174;2022-07-23T13:18:27;6.25;;;5.75;;
18407;SDS011;9330;52.210;21.174;2022-07-23T13:20:55;8.48;;;5.43;;
18407;SDS011;9330;52.210;21.174;2022-07-23T13:23:22;6.70;;;6.00;;
18407;SDS011;9330;52.210;21.174;2022-07-23T13:25:51;6.40;;;5.80;;
18407;SDS011;9330;52.210;21.174;2022-07-23T13:28:18;6.72;;;5.95;;
18407;SDS011;9330;52.210;21.174;2022-07-23T13:30:45;6.82;;;6.22;;
18407;SDS011;9330;52.210;21.174;2022-07-23T13:33:16;6.38;;;5.78;;
18407;SDS011;9330;52.210;21.174;2022-07-23T13:35:45;6.88;;;6.22;;
18407;SDS011;9330;52.210;21.174;2022-07-23T13:38:12;6.20;;;5.70;;
18407;SDS011;9330;52.210;21.174;2022-07-23T13:40:40;6.70;;;6.07;;
18407;SDS011;9330;52.210;21.174;2022-07-23T13:43:11;7.35;;;6.25;;
18407;SDS011;9330;52.210;21.174;2022-07-23T13:45:40;6.65;;;6.05;;
18407;SDS011;9330;52.210;21.174;2022-07-23T13:48:08;7.13;;;6.43;;
18407;SDS011;9330;52.210;21.174;2022-07-23T13:50:36;6.63;;;6.03;;
18407;SDS011;9330;52.210;21.174;2022-07-23T13:53:04;6.75;;;6.15;;
18407;SDS011;9330;52.210;21.174;2022-07-23T13:55:33;6.70;;;6.18;;
18407;SDS011;9330;52.210;21.174;2022-07-23T13:58:00;7.57;;;6.32;;
18407;SDS011;9330;52.210;21.174;2022-07-23T14:00:29;6.93;;;6.18;;
18407;SDS011;9330;52.210;21.174;2022-07-23T14:02:56;6.63;;;5.97;;
18407;SDS011;9330;52.210;21.174;2022-07-23T14:05:24;6.43;;;5.75;;
18407;SDS011;9330;52.210;21.174;2022-07-23T14:07:51;6.85;;;6.15;;
18407;SDS011;9330;52.210;21.174;2022-07-23T14:10:19;6.50;;;5.90;;
18407;SDS011;9330;52.210;21.174;2022-07-23T14:12:47;7.47;;;6.68;;
18407;SDS011;9330;52.210;21.174;2022-07-23T14:15:15;6.32;;;5.72;;
18407;SDS011;9330;52.210;21.174;2022-07-23T14:17:45;6.47;;;5.88;;
18407;SDS011;9330;52.210;21.174;2022-07-23T14:20:13;8.52;;;6.22;;
18407;SDS011;9330;52.210;21.174;2022-07-23T14:22:40;6.55;;;6.05;;
18407;SDS011;9330;52.210;21.174;2022-07-23T14:25:08;6.97;;;6.38;;
18407;SDS011;9330;52.210;21.174;2022-07-23T14:27:36;6.82;;;5.78;;
18407;SDS011;9330;52.210;21.174;2022-07-23T14:30:04;6.18;;;5.68;;
18407;SDS011;9330;52.210;21.174;2022-07-23T14:32:32;5.97;;;5.47;;
18407;SDS011;9330;52.210;21.174;2022-07-23T14:35:01;7.07;;;5.85;;
18407;SDS011;9330;52.210;21.174;2022-07-23T14:37:28;6.97;;;5.97;;
18407;SDS011;9330;52.210;21.174;2022-07-23T14:39:55;6.43;;;5.93;;
18407;SDS011;9330;52.210;21.174;2022-07-23T14:42:22;7.22;;;6.15;;
18407;SDS011;9330;52.210;21.174;2022-07-23T14:44:49;6.38;;;5.88;;
18407;SDS011;9330;52.210;21.174;2022-07-23T14:47:16;7.10;;;6.20;;
18407;SDS011;9330;52.210;21.174;2022-07-23T14:49:43;6.32;;;5.80;;
18407;SDS011;9330;52.210;21.174;2022-07-23T14:52:11;6.50;;;5.90;;
18407;SDS011;9330;52.210;21.174;2022-07-23T14:54:38;6.95;;;6.35;;
18407;SDS011;9330;52.210;21.174;2022-07-23T14:57:05;69.18;;;10.27;;
18407;SDS011;9330;52.210;21.174;2022-07-23T14:59:34;41.25;;;7.80;;